createdAt,value
2022-09-23T00:00:05.207Z,62.54
2022-09-23T00:00:17.205Z,62.51
2022-09-23T00:00:29.343Z,62.69
2022-09-23T00:00:45.728Z,62.84
2022-09-23T00:01:03.127Z,62.81
2022-09-23T00:01:15.251Z,62.74
2022-09-23T00:01:27.484Z,62.55
2022-09-23T00:01:39.462Z,63.03
2022-09-23T00:01:51.470Z,62.80
2022-09-23T00:02:03.608Z,63.25
2022-09-23T00:02:16.700Z,63.54
2022-09-23T00:02:28.705Z,63.28
2022-09-23T00:02:40.772Z,63.48
2022-09-23T00:02:52.800Z,63.57
2022-09-23T00:03:05.048Z,63.37
2022-09-23T00:03:16.991Z,63.03
2022-09-23T00:03:30.635Z,63.16
2022-09-23T00:03:46.816Z,62.96
2022-09-23T00:04:00.028Z,63.69
2022-09-23T00:04:11.979Z,63.31
2022-09-23T00:04:23.926Z,63.59
2022-09-23T00:04:35.902Z,63.42
2022-09-23T00:04:47.797Z,63.50
2022-09-23T00:04:59.704Z,63.61
2022-09-23T00:05:11.602Z,63.68
2022-09-23T00:05:23.536Z,63.23
2022-09-23T00:05:35.658Z,63.43
2022-09-23T00:05:58.589Z,63.32
2022-09-23T00:06:13.473Z,62.97
2022-09-23T00:06:27.972Z,63.41
2022-09-23T00:06:40.060Z,63.45
2022-09-23T00:06:52.078Z,63.50
2022-09-23T00:07:04.044Z,63.76
2022-09-23T00:07:16.313Z,63.55
2022-09-23T00:07:28.220Z,62.86
2022-09-23T00:07:40.159Z,62.88
2022-09-23T00:07:52.122Z,62.96
2022-09-23T00:08:08.095Z,62.99
2022-09-23T00:08:20.045Z,62.58
2022-09-23T00:08:32.297Z,62.86
2022-09-23T00:08:44.863Z,63.19
2022-09-23T00:08:56.755Z,62.84
2022-09-23T00:09:08.643Z,62.64
2022-09-23T00:09:20.528Z,62.67
2022-09-23T00:09:32.565Z,62.42
2022-09-23T00:09:44.446Z,62.82
2022-09-23T00:09:56.398Z,62.76
2022-09-23T00:10:08.749Z,63.11
2022-09-23T00:10:21.594Z,62.89
2022-09-23T00:10:37.257Z,62.95
2022-09-23T00:10:49.162Z,63.26
2022-09-23T00:11:07.081Z,63.62
2022-09-23T00:11:22.094Z,63.23
2022-09-23T00:11:34.335Z,63.21
2022-09-23T00:11:46.211Z,63.26
2022-09-23T00:11:58.333Z,63.38
2022-09-23T00:12:10.415Z,63.79
2022-09-23T00:12:22.386Z,63.96
2022-09-23T00:12:34.258Z,63.73
2022-09-23T00:12:46.160Z,63.81
2022-09-23T00:12:58.771Z,63.67
2022-09-23T00:13:10.703Z,64.03
2022-09-23T00:13:24.393Z,63.85
2022-09-23T00:13:37.243Z,63.92
2022-09-23T00:13:52.998Z,63.71
2022-09-23T00:14:04.942Z,64.05
2022-09-23T00:14:17.503Z,63.54
2022-09-23T00:14:29.430Z,63.61
2022-09-23T00:14:41.322Z,63.81
2022-09-23T00:14:53.303Z,64.28
2022-09-23T00:15:05.656Z,63.99
2022-09-23T00:15:18.006Z,63.78
2022-09-23T00:15:31.100Z,63.44
2022-09-23T00:15:43.063Z,63.88
2022-09-23T00:15:54.958Z,63.95
2022-09-23T00:16:10.486Z,64.58
2022-09-23T00:16:25.699Z,64.60
2022-09-23T00:16:38.197Z,64.09
2022-09-23T00:16:50.351Z,64.64
2022-09-23T00:17:02.290Z,64.59
2022-09-23T00:17:14.284Z,64.71
2022-09-23T00:17:27.173Z,64.44
2022-09-23T00:17:40.318Z,64.20
2022-09-23T00:17:52.707Z,64.50
2022-09-23T00:18:04.633Z,64.11
2022-09-23T00:18:17.856Z,64.15
2022-09-23T00:18:29.731Z,64.04
2022-09-23T00:18:42.184Z,64.08
2022-09-23T00:18:54.765Z,64.26
2022-09-23T00:19:06.696Z,63.71
2022-09-23T00:19:18.598Z,64.04
2022-09-23T00:19:30.462Z,64.05
2022-09-23T00:19:42.556Z,63.64
2022-09-23T00:19:55.351Z,64.11
2022-09-23T00:20:09.280Z,64.16
2022-09-23T00:20:21.205Z,63.93
2022-09-23T00:20:35.157Z,63.49
2022-09-23T00:20:47.310Z,63.53
2022-09-23T00:21:04.579Z,64.44
2022-09-23T00:21:17.313Z,64.05
2022-09-23T00:21:29.423Z,63.92
2022-09-23T00:21:42.500Z,64.11
2022-09-23T00:21:56.661Z,64.52
2022-09-23T00:22:08.790Z,64.50
2022-09-23T00:22:21.223Z,64.64
2022-09-23T00:22:33.232Z,64.66
2022-09-23T00:22:45.596Z,64.85
2022-09-23T00:22:57.719Z,64.72
2022-09-23T00:23:09.652Z,64.54
2022-09-23T00:23:21.552Z,64.92
2022-09-23T00:23:34.203Z,64.58
2022-09-23T00:23:46.232Z,65.11
2022-09-23T00:23:58.590Z,65.02
2022-09-23T00:24:10.528Z,64.96
2022-09-23T00:24:23.463Z,65.34
2022-09-23T00:24:35.367Z,65.10
2022-09-23T00:24:47.387Z,64.78
2022-09-23T00:24:59.268Z,64.83
2022-09-23T00:25:11.936Z,65.12
2022-09-23T00:25:23.804Z,64.58
2022-09-23T00:25:35.675Z,64.63
2022-09-23T00:25:59.341Z,64.19
2022-09-23T00:26:15.617Z,64.15
2022-09-23T00:26:27.813Z,64.41
2022-09-23T00:26:39.779Z,64.45
2022-09-23T00:26:51.665Z,64.83
2022-09-23T00:27:03.744Z,64.53
2022-09-23T00:27:16.018Z,64.60
2022-09-23T00:27:28.991Z,64.72
2022-09-23T00:27:41.911Z,64.42
2022-09-23T00:27:53.993Z,64.51
2022-09-23T00:28:05.933Z,64.31
2022-09-23T00:28:17.808Z,64.62
2022-09-23T00:28:30.609Z,64.70
2022-09-23T00:28:43.125Z,64.06
2022-09-23T00:28:55.008Z,64.38
2022-09-23T00:29:06.924Z,64.08
2022-09-23T00:29:18.824Z,64.63
2022-09-23T00:29:31.620Z,64.19
2022-09-23T00:29:43.550Z,64.12
2022-09-23T00:29:55.500Z,63.89
2022-09-23T00:30:09.585Z,64.49
2022-09-23T00:30:23.384Z,64.58
2022-09-23T00:30:35.444Z,64.59
2022-09-23T00:30:47.412Z,64.72
2022-09-23T00:31:10.627Z,64.73
2022-09-23T00:31:25.316Z,64.60
2022-09-23T00:31:37.197Z,64.57
2022-09-23T00:31:49.175Z,64.62
2022-09-23T00:32:01.253Z,64.37
2022-09-23T00:32:13.341Z,64.36
2022-09-23T00:32:25.669Z,64.47
2022-09-23T00:32:38.054Z,65.33
2022-09-23T00:32:49.945Z,65.30
2022-09-23T00:33:01.807Z,65.33
2022-09-23T00:33:13.740Z,65.20
2022-09-23T00:33:25.611Z,64.78
2022-09-23T00:33:37.946Z,64.86
2022-09-23T00:33:59.282Z,64.77
2022-09-23T00:34:11.692Z,64.31
2022-09-23T00:34:23.580Z,64.41
2022-09-23T00:34:35.437Z,64.75
2022-09-23T00:34:47.910Z,65.01
2022-09-23T00:35:00.035Z,64.99
2022-09-23T00:35:11.934Z,64.83
2022-09-23T00:35:23.809Z,64.57
2022-09-23T00:35:35.704Z,65.04
2022-09-23T00:35:47.730Z,65.19
2022-09-23T00:36:04.504Z,65.46
2022-09-23T00:36:16.405Z,65.44
2022-09-23T00:36:29.521Z,65.29
2022-09-23T00:36:42.795Z,65.54
2022-09-23T00:36:54.650Z,64.82
2022-09-23T00:37:06.568Z,65.08
2022-09-23T00:37:19.669Z,64.98
2022-09-23T00:37:31.716Z,65.01
2022-09-23T00:37:43.598Z,64.82
2022-09-23T00:37:56.120Z,65.14
2022-09-23T00:38:08.060Z,65.09
2022-09-23T00:38:19.947Z,65.00
2022-09-23T00:38:33.829Z,64.62
2022-09-23T00:38:46.145Z,64.61
2022-09-23T00:38:58.361Z,64.60
2022-09-23T00:39:10.288Z,64.82
2022-09-23T00:39:22.972Z,64.78
2022-09-23T00:39:34.834Z,65.27
2022-09-23T00:39:46.867Z,65.38
2022-09-23T00:39:59.647Z,64.99
2022-09-23T00:40:13.062Z,65.46
2022-09-23T00:40:26.027Z,65.34
2022-09-23T00:40:43.568Z,65.22
2022-09-23T00:40:55.793Z,65.33
2022-09-23T00:41:07.859Z,65.59
2022-09-23T00:41:19.991Z,65.60
2022-09-23T00:41:32.665Z,65.35
2022-09-23T00:41:44.563Z,65.34
2022-09-23T00:41:56.462Z,64.58
2022-09-23T00:42:18.540Z,64.74
2022-09-23T00:42:30.521Z,64.88
2022-09-23T00:42:51.924Z,65.61
2022-09-23T00:43:04.646Z,65.27
2022-09-23T00:43:17.182Z,64.95
2022-09-23T00:43:49.945Z,64.59
2022-09-23T00:44:23.221Z,64.87
2022-09-23T00:44:48.104Z,65.45
2022-09-23T00:45:00.831Z,65.38
2022-09-23T00:45:12.884Z,65.36
2022-09-23T00:45:24.770Z,65.77
2022-09-23T00:45:36.717Z,65.32
2022-09-23T00:45:51.059Z,65.57
2022-09-23T00:46:03.630Z,65.22
2022-09-23T00:46:23.200Z,65.74
2022-09-23T00:46:39.964Z,65.77
2022-09-23T00:46:52.242Z,65.91
2022-09-23T00:47:04.325Z,65.76
2022-09-23T00:47:19.387Z,65.70
2022-09-23T00:47:33.625Z,65.68
2022-09-23T00:47:52.302Z,65.57
2022-09-23T00:48:05.003Z,65.63
2022-09-23T00:48:20.300Z,65.52
2022-09-23T00:48:32.302Z,65.44
2022-09-23T00:48:45.649Z,65.72
2022-09-23T00:49:07.213Z,65.58
2022-09-23T00:49:28.353Z,65.51
2022-09-23T00:49:40.535Z,65.30
2022-09-23T00:50:09.877Z,65.23
2022-09-23T00:50:35.039Z,65.67
2022-09-23T00:50:51.021Z,65.45
2022-09-23T00:51:04.691Z,65.94
2022-09-23T00:51:21.291Z,65.70
2022-09-23T00:51:38.554Z,65.54
2022-09-23T00:51:57.428Z,65.18
2022-09-23T00:52:15.368Z,65.01
2022-09-23T00:52:28.330Z,65.48
2022-09-23T00:52:40.545Z,66.16
2022-09-23T00:52:56.703Z,66.25
2022-09-23T00:53:12.419Z,66.42
2022-09-23T00:53:26.639Z,66.54
2022-09-23T00:53:39.719Z,66.42
2022-09-23T00:53:52.653Z,65.98
2022-09-23T00:54:06.220Z,66.04
2022-09-23T00:54:18.691Z,66.35
2022-09-23T00:54:30.971Z,66.63
2022-09-23T00:54:43.460Z,67.01
2022-09-23T00:54:57.592Z,66.57
2022-09-23T00:55:15.882Z,66.74
2022-09-23T00:55:34.537Z,66.50
2022-09-23T00:55:54.392Z,66.44
2022-09-23T00:56:10.132Z,66.39
2022-09-23T00:56:24.127Z,66.40
2022-09-23T00:56:38.864Z,66.39
2022-09-23T00:56:51.275Z,66.28
2022-09-23T00:57:05.597Z,66.37
2022-09-23T00:57:18.234Z,66.49
2022-09-23T00:57:31.169Z,66.82
2022-09-23T00:57:44.626Z,66.51
2022-09-23T00:57:59.114Z,66.75
2022-09-23T00:58:15.536Z,66.34
2022-09-23T00:58:31.583Z,66.29
2022-09-23T00:58:45.341Z,66.35
2022-09-23T00:58:57.326Z,66.50
2022-09-23T00:59:10.682Z,66.29
2022-09-23T00:59:24.333Z,66.50
2022-09-23T00:59:37.094Z,65.96
2022-09-23T00:59:50.858Z,65.76
2022-09-23T01:00:04.406Z,65.93
2022-09-23T01:00:16.399Z,65.97
2022-09-23T01:00:28.697Z,65.61
2022-09-23T01:00:42.049Z,66.24
2022-09-23T01:00:55.497Z,65.95
2022-09-23T01:01:07.933Z,65.80
2022-09-23T01:01:21.120Z,65.59
2022-09-23T01:01:33.166Z,65.29
2022-09-23T01:01:46.085Z,65.94
2022-09-23T01:02:00.227Z,66.16
2022-09-23T01:02:14.223Z,66.22
2022-09-23T01:02:28.107Z,66.01
2022-09-23T01:02:40.160Z,66.05
2022-09-23T01:02:52.737Z,65.88
2022-09-23T01:03:06.625Z,66.38
2022-09-23T01:03:19.568Z,66.24
2022-09-23T01:03:32.011Z,66.49
2022-09-23T01:03:45.423Z,66.15
2022-09-23T01:03:58.335Z,66.22
2022-09-23T01:04:10.256Z,66.12
2022-09-23T01:04:24.451Z,65.84
2022-09-23T01:04:36.602Z,65.83
2022-09-23T01:04:50.763Z,66.01
2022-09-23T01:05:06.112Z,66.00
2022-09-23T01:05:19.273Z,66.01
2022-09-23T01:05:33.455Z,66.14
2022-09-23T01:05:46.888Z,65.99
2022-09-23T01:05:59.559Z,65.72
2022-09-23T01:06:12.964Z,65.97
2022-09-23T01:06:25.247Z,65.92
2022-09-23T01:06:37.232Z,66.04
2022-09-23T01:06:49.362Z,65.90
2022-09-23T01:07:01.253Z,65.83
2022-09-23T01:07:13.632Z,66.18
2022-09-23T01:07:25.518Z,66.24
2022-09-23T01:07:37.493Z,66.66
2022-09-23T01:07:50.003Z,66.90
2022-09-23T01:08:04.756Z,66.33
2022-09-23T01:08:17.516Z,66.55
2022-09-23T01:08:29.755Z,66.18
2022-09-23T01:08:45.892Z,66.16
2022-09-23T01:08:57.775Z,65.58
2022-09-23T01:09:09.682Z,66.06
2022-09-23T01:09:22.961Z,66.12
2022-09-23T01:09:35.308Z,66.17
2022-09-23T01:09:48.591Z,66.17
2022-09-23T01:10:01.811Z,66.58
2022-09-23T01:10:16.795Z,66.39
2022-09-23T01:10:36.988Z,66.65
2022-09-23T01:10:48.813Z,66.50
2022-09-23T01:11:18.987Z,66.23
2022-09-23T01:11:48.313Z,66.78
2022-09-23T01:12:12.500Z,66.62
2022-09-23T01:12:42.701Z,66.70
2022-09-23T01:13:42.571Z,67.01
2022-09-23T01:14:06.639Z,66.43
2022-09-23T01:14:34.300Z,66.79
2022-09-23T01:14:57.951Z,66.38
2022-09-23T01:15:24.619Z,65.98
2022-09-23T01:15:45.795Z,65.80
2022-09-23T01:15:57.617Z,66.37
2022-09-23T01:16:15.998Z,66.05
2022-09-23T01:16:38.004Z,66.52
2022-09-23T01:17:04.389Z,66.50
2022-09-23T01:17:29.438Z,66.49
2022-09-23T01:17:50.336Z,66.87
2022-09-23T01:18:21.107Z,66.69
2022-09-23T01:18:35.645Z,67.08
2022-09-23T01:19:15.204Z,67.12
2022-09-23T01:19:36.168Z,67.21
2022-09-23T01:20:27.913Z,67.03
2022-09-23T01:20:42.428Z,67.16
2022-09-23T01:21:33.268Z,67.30
2022-09-23T01:21:58.367Z,66.59
2022-09-23T01:22:19.470Z,66.65
2022-09-23T01:22:51.546Z,66.77
2022-09-23T01:23:22.033Z,67.22
2022-09-23T01:23:55.446Z,67.02
2022-09-23T01:24:22.999Z,67.15
2022-09-23T01:24:51.251Z,67.42
2022-09-23T01:25:08.860Z,66.72
2022-09-23T01:25:48.511Z,66.45
2022-09-23T01:26:06.228Z,66.41
2022-09-23T01:26:39.511Z,66.08
2022-09-23T01:27:22.312Z,66.97
2022-09-23T01:27:58.762Z,67.02
2022-09-23T01:28:35.100Z,66.85
2022-09-23T01:29:15.594Z,66.86
2022-09-23T01:30:06.776Z,67.44
2022-09-23T01:30:47.569Z,67.40
2022-09-23T01:31:08.267Z,67.91
2022-09-23T01:31:31.957Z,67.63
2022-09-23T01:31:51.300Z,67.55
2022-09-23T01:32:37.820Z,67.80
2022-09-23T01:33:20.021Z,67.69
2022-09-23T01:33:53.079Z,67.97
2022-09-23T01:34:32.931Z,68.00
2022-09-23T01:34:47.710Z,67.88
2022-09-23T01:35:04.684Z,67.99
2022-09-23T01:35:38.465Z,67.97
2022-09-23T01:36:04.259Z,67.85
2022-09-23T01:36:27.980Z,68.01
2022-09-23T01:36:51.052Z,67.87
2022-09-23T01:37:31.723Z,68.08
2022-09-23T01:38:09.543Z,68.46
2022-09-23T01:38:32.731Z,68.80
2022-09-23T01:39:08.628Z,68.36
2022-09-23T01:39:37.889Z,68.39
2022-09-23T01:40:11.365Z,68.07
2022-09-23T01:40:42.512Z,68.27
2022-09-23T01:41:04.489Z,68.24
2022-09-23T01:41:37.521Z,68.31
2022-09-23T01:42:39.473Z,68.80
2022-09-23T01:43:04.453Z,68.64
2022-09-23T01:43:36.192Z,68.61
2022-09-23T01:43:53.173Z,69.10
2022-09-23T01:44:10.154Z,69.08
2022-09-23T01:44:48.090Z,69.17
2022-09-23T01:45:08.983Z,68.85
2022-09-23T01:45:43.398Z,68.68
2022-09-23T01:45:59.797Z,68.80
2022-09-23T01:46:23.184Z,68.82
2022-09-23T01:46:51.571Z,69.00
2022-09-23T01:47:15.289Z,69.06
2022-09-23T01:47:30.497Z,69.05
2022-09-23T01:47:51.651Z,69.75
2022-09-23T01:48:13.885Z,69.81
2022-09-23T01:48:46.512Z,69.89
2022-09-23T01:49:06.791Z,69.54
2022-09-23T01:49:34.408Z,69.21
2022-09-23T01:49:53.924Z,69.54
2022-09-23T01:50:28.705Z,69.23
2022-09-23T01:50:56.258Z,69.44
2022-09-23T01:51:19.027Z,69.39
2022-09-23T01:51:35.553Z,69.09
2022-09-23T01:51:59.908Z,68.91
2022-09-23T01:52:17.579Z,69.05
2022-09-23T01:52:40.283Z,68.97
2022-09-23T01:52:54.967Z,68.97
2022-09-23T01:53:14.674Z,69.26
2022-09-23T01:53:49.441Z,69.52
2022-09-23T01:54:15.853Z,69.46
2022-09-23T01:54:35.692Z,69.22
2022-09-23T01:54:56.563Z,69.13
2022-09-23T01:55:20.691Z,69.65
2022-09-23T01:55:38.300Z,69.66
2022-09-23T01:55:58.932Z,69.74
2022-09-23T01:56:17.739Z,70.02
2022-09-23T01:56:38.501Z,69.66
2022-09-23T01:57:01.581Z,69.58
2022-09-23T01:57:27.202Z,69.46
2022-09-23T01:57:44.813Z,69.44
2022-09-23T01:58:19.466Z,68.89
2022-09-23T01:58:55.897Z,68.94
2022-09-23T01:59:21.470Z,68.88
2022-09-23T01:59:53.498Z,69.29
2022-09-23T02:00:11.628Z,68.87
2022-09-23T02:00:24.512Z,69.06
2022-09-23T02:00:41.384Z,69.11
2022-09-23T02:00:59.369Z,68.53
2022-09-23T02:01:23.385Z,68.95
2022-09-23T02:01:41.295Z,68.64
2022-09-23T02:02:06.193Z,69.02
2022-09-23T02:02:28.961Z,69.05
2022-09-23T02:02:56.235Z,69.12
2022-09-23T02:03:15.291Z,69.07
2022-09-23T02:03:48.385Z,69.00
2022-09-23T02:04:08.730Z,68.88
2022-09-23T02:04:39.532Z,69.26
2022-09-23T02:05:11.040Z,69.20
2022-09-23T02:05:25.928Z,69.18
2022-09-23T02:05:43.480Z,69.34
2022-09-23T02:06:05.149Z,68.97
2022-09-23T02:06:23.167Z,69.10
2022-09-23T02:06:51.195Z,69.23
2022-09-23T02:07:10.629Z,69.68
2022-09-23T02:07:29.705Z,70.15
2022-09-23T02:07:50.203Z,70.60
2022-09-23T02:08:17.667Z,70.81
2022-09-23T02:08:35.609Z,70.80
2022-09-23T02:08:56.454Z,70.96
2022-09-23T02:09:15.117Z,71.32
2022-09-23T02:09:35.495Z,71.02
2022-09-23T02:09:57.821Z,70.58
2022-09-23T02:10:19.779Z,70.32
2022-09-23T02:10:37.337Z,70.41
2022-09-23T02:10:56.382Z,70.61
2022-09-23T02:11:15.955Z,70.54
2022-09-23T02:11:30.871Z,70.95
2022-09-23T02:11:48.059Z,70.79
2022-09-23T02:12:06.015Z,70.81
2022-09-23T02:12:20.488Z,70.45
2022-09-23T02:12:38.339Z,70.50
2022-09-23T02:12:54.820Z,70.48
2022-09-23T02:13:15.584Z,70.48
2022-09-23T02:13:32.503Z,70.89
2022-09-23T02:13:50.969Z,70.96
2022-09-23T02:14:06.804Z,71.10
2022-09-23T02:14:24.550Z,70.99
2022-09-23T02:14:44.320Z,70.99
2022-09-23T02:15:29.032Z,70.80
2022-09-23T02:15:50.435Z,70.71
2022-09-23T02:16:09.499Z,70.94
2022-09-23T02:16:30.181Z,70.49
2022-09-23T02:16:47.446Z,70.44
2022-09-23T02:17:08.689Z,70.75
2022-09-23T02:17:34.189Z,70.38
2022-09-23T02:17:52.168Z,70.54
2022-09-23T02:18:13.175Z,70.30
2022-09-23T02:18:34.045Z,70.26
2022-09-23T02:18:53.225Z,70.26
2022-09-23T02:19:13.228Z,70.40
2022-09-23T02:19:33.813Z,70.56
2022-09-23T02:19:50.504Z,70.47
2022-09-23T02:20:06.868Z,70.38
2022-09-23T02:20:39.497Z,71.19
2022-09-23T02:20:55.730Z,71.31
2022-09-23T02:21:09.494Z,71.06
2022-09-23T02:21:27.409Z,71.27
2022-09-23T02:21:52.752Z,70.98
2022-09-23T02:22:23.652Z,70.73
2022-09-23T02:22:56.809Z,70.48
2022-09-23T02:23:13.078Z,70.46
2022-09-23T02:23:31.911Z,70.36
2022-09-23T02:23:51.308Z,70.41
2022-09-23T02:24:12.711Z,70.57
2022-09-23T02:24:34.543Z,70.58
2022-09-23T02:24:46.682Z,70.40
2022-09-23T02:24:58.797Z,70.54
2022-09-23T02:25:12.494Z,70.44
2022-09-23T02:25:35.682Z,70.30
2022-09-23T02:25:56.482Z,70.47
2022-09-23T02:26:19.596Z,70.46
2022-09-23T02:26:49.748Z,70.64
2022-09-23T02:27:19.767Z,70.56
2022-09-23T02:27:50.452Z,70.62
2022-09-23T02:28:22.544Z,70.38
2022-09-23T02:28:53.419Z,70.36
2022-09-23T02:29:42.751Z,70.11
2022-09-23T02:30:09.420Z,70.27
2022-09-23T02:30:27.147Z,70.37
2022-09-23T02:30:49.311Z,70.18
2022-09-23T02:31:14.711Z,70.47
2022-09-23T02:32:00.141Z,70.19
2022-09-23T02:32:25.063Z,70.18
2022-09-23T02:32:55.539Z,69.90
2022-09-23T02:33:26.454Z,70.35
2022-09-23T02:33:55.389Z,70.48
2022-09-23T02:34:32.050Z,70.19
2022-09-23T02:35:10.066Z,70.52
2022-09-23T02:35:32.767Z,70.50
2022-09-23T02:36:15.135Z,70.48
2022-09-23T02:36:36.863Z,70.50
2022-09-23T02:36:53.069Z,70.32
2022-09-23T02:37:11.641Z,70.06
2022-09-23T02:37:43.556Z,69.95
2022-09-23T02:38:13.413Z,70.26
2022-09-23T02:38:36.071Z,70.34
2022-09-23T02:39:00.539Z,69.93
2022-09-23T02:39:14.370Z,69.81
2022-09-23T02:39:36.718Z,69.69
2022-09-23T02:40:00.577Z,69.82
2022-09-23T02:40:37.989Z,69.91
2022-09-23T02:41:04.587Z,69.64
2022-09-23T02:41:32.432Z,69.63
2022-09-23T02:42:10.055Z,69.53
2022-09-23T02:42:30.612Z,69.56
2022-09-23T02:42:47.184Z,69.84
2022-09-23T02:43:11.348Z,69.91
2022-09-23T02:43:42.798Z,69.33
2022-09-23T02:44:06.396Z,69.44
2022-09-23T02:44:19.930Z,69.71
2022-09-23T02:44:32.927Z,69.71
2022-09-23T02:44:44.812Z,69.67
2022-09-23T02:44:56.834Z,69.74
2022-09-23T02:45:09.019Z,69.71
2022-09-23T02:45:20.990Z,70.06
2022-09-23T02:45:33.866Z,70.12
2022-09-23T02:45:47.303Z,69.88
2022-09-23T02:46:00.359Z,70.02
2022-09-23T02:46:12.443Z,69.91
2022-09-23T02:46:24.508Z,69.82
2022-09-23T02:46:37.033Z,70.04
2022-09-23T02:46:52.242Z,69.92
2022-09-23T02:47:04.234Z,69.77
2022-09-23T02:47:20.447Z,69.95
2022-09-23T02:47:35.824Z,69.99
2022-09-23T02:47:53.252Z,70.36
2022-09-23T02:48:14.643Z,70.51
2022-09-23T02:48:32.350Z,70.32
2022-09-23T02:49:12.478Z,70.76
2022-09-23T02:49:29.658Z,70.18
2022-09-23T02:49:41.568Z,70.20
2022-09-23T02:49:56.229Z,70.24
2022-09-23T02:50:09.406Z,70.17
2022-09-23T02:50:22.539Z,69.94
2022-09-23T02:50:34.728Z,70.06
2022-09-23T02:50:47.697Z,69.99
2022-09-23T02:51:02.218Z,69.71
2022-09-23T02:51:14.639Z,69.53
2022-09-23T02:51:28.841Z,69.52
2022-09-23T02:51:41.483Z,69.73
2022-09-23T02:51:54.491Z,69.82
2022-09-23T02:52:07.511Z,69.70
2022-09-23T02:52:19.441Z,69.23
2022-09-23T02:52:32.545Z,69.63
2022-09-23T02:52:46.276Z,69.46
2022-09-23T02:52:58.881Z,69.62
2022-09-23T02:53:10.788Z,69.67
2022-09-23T02:53:23.991Z,70.01
2022-09-23T02:53:36.556Z,70.15
2022-09-23T02:53:48.605Z,70.09
2022-09-23T02:54:03.393Z,69.81
2022-09-23T02:54:20.283Z,69.82
2022-09-23T02:54:33.801Z,69.88
2022-09-23T02:54:45.772Z,69.81
2022-09-23T02:54:58.100Z,69.46
2022-09-23T02:55:13.024Z,69.52
2022-09-23T02:55:31.231Z,69.71
2022-09-23T02:55:43.496Z,69.42
2022-09-23T02:55:55.355Z,69.24
2022-09-23T02:56:16.068Z,69.34
2022-09-23T02:56:28.657Z,69.34
2022-09-23T02:56:41.073Z,69.89
2022-09-23T02:56:53.383Z,69.93
2022-09-23T02:57:07.694Z,69.75
2022-09-23T02:57:19.735Z,69.85
2022-09-23T02:57:32.162Z,69.68
2022-09-23T02:57:45.260Z,69.72
2022-09-23T02:58:01.391Z,69.42
2022-09-23T02:58:14.175Z,69.46
2022-09-23T02:58:26.243Z,69.34
2022-09-23T02:58:38.160Z,69.49
2022-09-23T02:58:52.958Z,69.65
2022-09-23T02:59:06.052Z,69.47
2022-09-23T02:59:20.220Z,69.23
2022-09-23T02:59:34.051Z,69.29
2022-09-23T02:59:46.671Z,69.07
2022-09-23T02:59:58.599Z,69.67
2022-09-23T03:00:11.267Z,69.36
2022-09-23T03:00:23.765Z,69.24
2022-09-23T03:01:06.040Z,69.45
2022-09-23T03:01:31.381Z,69.35
2022-09-23T03:01:49.145Z,69.58
2022-09-23T03:02:06.917Z,69.17
2022-09-23T03:02:33.951Z,69.33
2022-09-23T03:03:08.266Z,69.59
2022-09-23T03:03:33.974Z,69.26
2022-09-23T03:04:05.043Z,69.28
2022-09-23T03:04:50.746Z,69.65
2022-09-23T03:05:19.236Z,69.53
2022-09-23T03:05:37.989Z,69.34
2022-09-23T03:05:55.212Z,69.31
2022-09-23T03:06:36.789Z,69.12
2022-09-23T03:06:54.434Z,69.57
2022-09-23T03:07:24.304Z,69.32
2022-09-23T03:08:02.840Z,69.91
2022-09-23T03:09:18.827Z,69.03
2022-09-23T03:09:43.123Z,69.71
2022-09-23T03:10:21.816Z,69.89
2022-09-23T03:10:58.305Z,70.18
2022-09-23T03:11:13.387Z,69.65
2022-09-23T03:11:26.143Z,69.77
2022-09-23T03:11:42.737Z,69.90
2022-09-23T03:12:16.402Z,69.73
2022-09-23T03:12:42.323Z,69.83
2022-09-23T03:13:26.153Z,69.95
2022-09-23T03:14:16.813Z,69.62
2022-09-23T03:14:49.234Z,69.79
2022-09-23T03:15:10.053Z,70.04
2022-09-23T03:15:33.331Z,70.08
2022-09-23T03:16:06.087Z,70.69
2022-09-23T03:16:34.640Z,70.80
2022-09-23T03:17:03.490Z,70.46
2022-09-23T03:17:29.427Z,70.03
2022-09-23T03:18:08.165Z,69.70
2022-09-23T03:18:42.081Z,70.02
2022-09-23T03:19:19.726Z,70.13
2022-09-23T03:19:46.272Z,70.58
2022-09-23T03:20:15.333Z,69.66
2022-09-23T03:20:34.185Z,69.40
2022-09-23T03:21:03.105Z,70.03
2022-09-23T03:21:25.009Z,70.14
2022-09-23T03:21:55.289Z,70.21
2022-09-23T03:22:35.484Z,70.43
2022-09-23T03:22:54.526Z,70.39
2022-09-23T03:23:10.553Z,70.36
2022-09-23T03:23:31.283Z,70.45
2022-09-23T03:23:45.180Z,70.41
2022-09-23T03:24:00.549Z,70.62
2022-09-23T03:24:14.776Z,70.84
2022-09-23T03:24:31.170Z,70.51
2022-09-23T03:24:45.516Z,70.73
2022-09-23T03:25:05.883Z,70.80
2022-09-23T03:25:24.123Z,70.58
2022-09-23T03:25:40.146Z,70.42
2022-09-23T03:25:55.496Z,70.42
2022-09-23T03:26:13.564Z,70.50
2022-09-23T03:26:31.408Z,70.51
2022-09-23T03:26:47.032Z,70.51
2022-09-23T03:27:03.233Z,71.13
2022-09-23T03:27:20.026Z,71.14
2022-09-23T03:27:34.671Z,71.58
2022-09-23T03:27:46.575Z,71.57
2022-09-23T03:28:01.168Z,71.33
2022-09-23T03:28:16.481Z,71.17
2022-09-23T03:28:28.973Z,71.21
2022-09-23T03:28:44.298Z,71.16
2022-09-23T03:28:56.564Z,71.38
2022-09-23T03:29:11.733Z,71.47
2022-09-23T03:29:24.236Z,71.61
2022-09-23T03:29:36.921Z,71.31
2022-09-23T03:29:51.614Z,71.08
2022-09-23T03:30:06.784Z,71.03
2022-09-23T03:30:19.048Z,71.20
2022-09-23T03:30:37.152Z,71.07
2022-09-23T03:30:54.252Z,70.82
2022-09-23T03:31:06.192Z,70.43
2022-09-23T03:31:18.331Z,70.50
2022-09-23T03:31:32.289Z,70.52
2022-09-23T03:31:44.925Z,70.49
2022-09-23T03:31:57.984Z,70.30
2022-09-23T03:32:10.129Z,70.51
2022-09-23T03:32:26.739Z,69.89
2022-09-23T03:32:42.740Z,70.22
2022-09-23T03:32:57.028Z,70.55
2022-09-23T03:33:12.408Z,70.73
2022-09-23T03:33:28.793Z,70.93
2022-09-23T03:33:47.034Z,71.21
2022-09-23T03:34:01.837Z,71.80
2022-09-23T03:34:21.361Z,71.43
2022-09-23T03:34:35.317Z,71.62
2022-09-23T03:34:50.591Z,71.51
2022-09-23T03:35:04.836Z,71.44
2022-09-23T03:35:17.172Z,71.21
2022-09-23T03:35:32.654Z,71.25
2022-09-23T03:36:12.487Z,71.08
2022-09-23T03:36:49.979Z,70.88
2022-09-23T03:37:14.131Z,70.88
2022-09-23T03:37:32.350Z,71.31
2022-09-23T03:37:46.836Z,71.42
2022-09-23T03:38:11.968Z,72.03
2022-09-23T03:38:27.855Z,71.59
2022-09-23T03:38:45.180Z,71.42
2022-09-23T03:39:11.655Z,71.72
2022-09-23T03:39:32.046Z,71.81
2022-09-23T03:39:50.812Z,71.69
2022-09-23T03:40:23.979Z,71.92
2022-09-23T03:40:43.354Z,71.88
2022-09-23T03:40:58.036Z,72.13
2022-09-23T03:41:12.096Z,72.09
2022-09-23T03:41:32.657Z,72.33
2022-09-23T03:41:50.797Z,72.56
2022-09-23T03:42:24.559Z,72.44
2022-09-23T03:42:38.084Z,72.69
2022-09-23T03:42:50.361Z,72.96
2022-09-23T03:43:05.009Z,72.72
2022-09-23T03:43:17.027Z,72.28
2022-09-23T03:43:30.042Z,72.40
2022-09-23T03:43:44.122Z,72.27
2022-09-23T03:43:58.389Z,72.04
2022-09-23T03:44:11.975Z,72.52
2022-09-23T03:44:24.589Z,72.70
2022-09-23T03:44:40.445Z,72.50
2022-09-23T03:44:54.217Z,72.79
2022-09-23T03:45:11.077Z,72.91
2022-09-23T03:45:27.908Z,72.78
2022-09-23T03:45:42.556Z,72.75
2022-09-23T03:45:57.569Z,72.70
2022-09-23T03:46:09.769Z,72.43
2022-09-23T03:46:25.384Z,72.54
2022-09-23T03:46:37.489Z,72.60
2022-09-23T03:46:52.448Z,72.19
2022-09-23T03:47:04.514Z,72.46
2022-09-23T03:47:16.815Z,72.32
2022-09-23T03:47:28.823Z,71.92
2022-09-23T03:47:42.198Z,72.45
2022-09-23T03:47:54.196Z,72.63
2022-09-23T03:48:07.131Z,72.71
2022-09-23T03:48:21.345Z,72.54
2022-09-23T03:48:33.308Z,72.78
2022-09-23T03:48:45.882Z,73.06
2022-09-23T03:49:05.366Z,73.14
2022-09-23T03:49:24.047Z,72.94
2022-09-23T03:49:39.648Z,73.04
2022-09-23T03:49:52.160Z,73.99
2022-09-23T03:50:04.316Z,73.55
2022-09-23T03:50:20.798Z,73.59
2022-09-23T03:50:32.727Z,73.12
2022-09-23T03:50:44.609Z,73.08
2022-09-23T03:50:56.504Z,73.24
2022-09-23T03:51:23.657Z,73.40
2022-09-23T03:51:35.741Z,73.16
2022-09-23T03:51:47.630Z,73.14
2022-09-23T03:52:00.111Z,73.14
2022-09-23T03:52:12.028Z,73.05
2022-09-23T03:52:25.871Z,72.56
2022-09-23T03:52:39.648Z,72.76
2022-09-23T03:52:51.532Z,72.73
2022-09-23T03:53:03.408Z,72.42
2022-09-23T03:53:15.352Z,72.31
2022-09-23T03:53:27.234Z,72.09
2022-09-23T03:53:39.537Z,72.18
2022-09-23T03:53:51.434Z,72.05
2022-09-23T03:54:03.303Z,72.02
2022-09-23T03:54:15.662Z,71.84
2022-09-23T03:54:29.896Z,72.11
2022-09-23T03:54:41.786Z,72.18